Terminal Aerodrome Forecast
Issued by NWS El Paso, TX

Home | Current Version | Previous Version | Text Only | Print | Product List | Glossary On
Versions: 1 2 3 4 5 6 7 8 9 10 11 12 13 14 15
000
FTUS44 KEPZ 240500
TAFELP
TAF
KELP 240529Z 2406/2506 08008KT P6SM FEW100
     FM241000 04005KT P6SM FEW180
     FM241800 12009KT P6SM SCT100
     FM250300 09006KT P6SM FEW100 SCT180=

USA.gov is the U.S. government's official web portal to all federal, state and local government web resources and services.